EGBJ/GLO METAR and TAF weather

Enter ICAO airport designator
Station Type Date Time Source
EGBJ METAR 2018/01/19 17:20 UTC NOAA

EGBJ 191720Z 27006KT 240V300 9999 FEW035 05/00 Q1008


Station Type Date Time Source
EGBJ Decoded METAR 2018/01/19 17:20 UTC NOAA

Staverton Private , United Kingdom (EGBJ) 51-54N 002-10W
Jan 19, 2018 - 12:20 PM EST / 2018.01.19 1720 UTC
Wind: from the W (270 degrees) at 7 MPH (6 KT) (direction variable):0
Visibility: greater than 7 mile(s):0
Sky conditions: mostly clear
Temperature: 41 F (5 C)
Dew Point: 32 F (0 C)
Relative Humidity: 70%
Pressure (altimeter): 29.77 in. Hg (1008 hPa)
ob: EGBJ 191720Z 27006KT 240V300 9999 FEW035 05/00 Q1008
cycle: 17

Station Type Date Time Source
EGBJ TAF UTC NOAA

Error!


Example: see airport list